sensor_id;sensor_type;location;lat;lon;timestamp;pressure;altitude;pressure_sealevel;temperature;humidity
79118;BME280;68523;51.336;-0.846;2023-11-21T00:00:01;100485.0;;;9.59;96.8
79118;BME280;68523;51.336;-0.846;2023-11-21T00:03:00;100495.0;;;9.51;97.2
79118;BME280;68523;51.336;-0.846;2023-11-21T00:06:00;100485.0;;;9.49;97.3
79118;BME280;68523;51.336;-0.846;2023-11-21T00:09:00;100495.0;;;9.47;97.5
79118;BME280;68523;51.336;-0.846;2023-11-21T00:12:00;100505.0;;;9.47;97.6
79118;BME280;68523;51.336;-0.846;2023-11-21T00:15:00;100505.0;;;9.47;97.4
79118;BME280;68523;51.336;-0.846;2023-11-21T00:18:00;100515.0;;;9.47;97.5
79118;BME280;68523;51.336;-0.846;2023-11-21T00:21:00;100515.0;;;9.46;97.5
79118;BME280;68523;51.336;-0.846;2023-11-21T00:24:00;100515.0;;;9.47;97.6
79118;BME280;68523;51.336;-0.846;2023-11-21T00:27:00;100525.0;;;9.47;97.6
79118;BME280;68523;51.336;-0.846;2023-11-21T00:30:00;100525.0;;;9.47;97.7
79118;BME280;68523;51.336;-0.846;2023-11-21T00:33:00;100525.0;;;9.45;97.7
79118;BME280;68523;51.336;-0.846;2023-11-21T00:36:00;100525.0;;;9.47;97.7
79118;BME280;68523;51.336;-0.846;2023-11-21T00:39:00;100535.0;;;9.44;97.7
79118;BME280;68523;51.336;-0.846;2023-11-21T00:42:00;100535.0;;;9.47;97.7
79118;BME280;68523;51.336;-0.846;2023-11-21T00:45:00;100545.0;;;9.45;97.7
79118;BME280;68523;51.336;-0.846;2023-11-21T00:48:00;100545.0;;;9.46;97.6
79118;BME280;68523;51.336;-0.846;2023-11-21T00:51:00;100545.0;;;9.48;97.6
79118;BME280;68523;51.336;-0.846;2023-11-21T00:54:00;100535.0;;;9.49;97.6
79118;BME280;68523;51.336;-0.846;2023-11-21T00:57:00;100535.0;;;9.50;97.7
79118;BME280;68523;51.336;-0.846;2023-11-21T01:00:00;100535.0;;;9.46;97.7
79118;BME280;68523;51.336;-0.846;2023-11-21T01:03:00;100535.0;;;9.48;97.8
79118;BME280;68523;51.336;-0.846;2023-11-21T01:06:00;100545.0;;;9.46;97.9
79118;BME280;68523;51.336;-0.846;2023-11-21T01:09:00;100545.0;;;9.46;97.9
79118;BME280;68523;51.336;-0.846;2023-11-21T01:12:00;100555.0;;;9.48;98.1
79118;BME280;68523;51.336;-0.846;2023-11-21T01:15:00;100555.0;;;9.47;98.0
79118;BME280;68523;51.336;-0.846;2023-11-21T01:18:00;100565.0;;;9.50;98.2
79118;BME280;68523;51.336;-0.846;2023-11-21T01:21:00;100565.0;;;9.49;98.3
79118;BME280;68523;51.336;-0.846;2023-11-21T01:24:00;100565.0;;;9.47;98.8
79118;BME280;68523;51.336;-0.846;2023-11-21T01:27:00;100575.0;;;9.36;99.4
79118;BME280;68523;51.336;-0.846;2023-11-21T01:30:01;100575.0;;;9.31;99.9
79118;BME280;68523;51.336;-0.846;2023-11-21T01:33:00;100585.0;;;9.34;100.0
79118;BME280;68523;51.336;-0.846;2023-11-21T01:36:00;100585.0;;;9.31;100.1
79118;BME280;68523;51.336;-0.846;2023-11-21T01:39:00;100595.0;;;9.33;100.1
79118;BME280;68523;51.336;-0.846;2023-11-21T01:42:00;100595.0;;;9.32;100.1
79118;BME280;68523;51.336;-0.846;2023-11-21T01:45:00;100595.0;;;9.34;100.2
79118;BME280;68523;51.336;-0.846;2023-11-21T01:48:00;100605.0;;;9.34;100.1
79118;BME280;68523;51.336;-0.846;2023-11-21T01:51:01;100605.0;;;9.35;100.1
79118;BME280;68523;51.336;-0.846;2023-11-21T01:54:00;100605.0;;;9.36;100.0
79118;BME280;68523;51.336;-0.846;2023-11-21T01:57:01;100605.0;;;9.41;100.0
79118;BME280;68523;51.336;-0.846;2023-11-21T02:00:02;100615.0;;;9.41;100.2
79118;BME280;68523;51.336;-0.846;2023-11-21T02:03:00;100615.0;;;9.39;100.6
79118;BME280;68523;51.336;-0.846;2023-11-21T02:06:01;100615.0;;;9.37;100.7
79118;BME280;68523;51.336;-0.846;2023-11-21T02:09:00;100615.0;;;9.38;100.7
79118;BME280;68523;51.336;-0.846;2023-11-21T02:12:02;100625.0;;;9.39;100.8
79118;BME280;68523;51.336;-0.846;2023-11-21T02:15:00;100625.0;;;9.39;100.8
79118;BME280;68523;51.336;-0.846;2023-11-21T02:18:00;100625.0;;;9.41;100.9
79118;BME280;68523;51.336;-0.846;2023-11-21T02:21:00;100635.0;;;9.42;100.8
79118;BME280;68523;51.336;-0.846;2023-11-21T02:24:00;100645.0;;;9.43;100.8
79118;BME280;68523;51.336;-0.846;2023-11-21T02:27:00;100645.0;;;9.47;100.7
79118;BME280;68523;51.336;-0.846;2023-11-21T02:30:00;100655.0;;;9.46;100.6
79118;BME280;68523;51.336;-0.846;2023-11-21T02:33:01;100655.0;;;9.46;100.6
79118;BME280;68523;51.336;-0.846;2023-11-21T02:36:00;100655.0;;;9.48;100.5
79118;BME280;68523;51.336;-0.846;2023-11-21T02:39:00;100655.0;;;9.50;100.5
79118;BME280;68523;51.336;-0.846;2023-11-21T02:42:00;100655.0;;;9.53;100.4
79118;BME280;68523;51.336;-0.846;2023-11-21T02:45:00;100665.0;;;9.53;100.3
79118;BME280;68523;51.336;-0.846;2023-11-21T02:48:00;100665.0;;;9.53;100.3
79118;BME280;68523;51.336;-0.846;2023-11-21T02:51:00;100665.0;;;9.51;100.4
79118;BME280;68523;51.336;-0.846;2023-11-21T02:54:00;100665.0;;;9.57;100.4
79118;BME280;68523;51.336;-0.846;2023-11-21T02:57:00;100675.0;;;9.57;100.4
79118;BME280;68523;51.336;-0.846;2023-11-21T03:00:00;100675.0;;;9.57;100.4
79118;BME280;68523;51.336;-0.846;2023-11-21T03:03:00;100685.0;;;9.55;100.5
79118;BME280;68523;51.336;-0.846;2023-11-21T03:06:00;100685.0;;;9.55;100.6
79118;BME280;68523;51.336;-0.846;2023-11-21T03:09:00;100685.0;;;9.53;100.8
79118;BME280;68523;51.336;-0.846;2023-11-21T03:12:00;100695.0;;;9.56;100.9
79118;BME280;68523;51.336;-0.846;2023-11-21T03:15:00;100695.0;;;9.55;101.0
79118;BME280;68523;51.336;-0.846;2023-11-21T03:18:00;100705.0;;;9.53;101.1
79118;BME280;68523;51.336;-0.846;2023-11-21T03:21:00;100705.0;;;9.53;101.1
79118;BME280;68523;51.336;-0.846;2023-11-21T03:24:00;100705.0;;;9.57;101.1
79118;BME280;68523;51.336;-0.846;2023-11-21T03:27:00;100705.0;;;9.55;101.1
79118;BME280;68523;51.336;-0.846;2023-11-21T03:30:00;100705.0;;;9.57;101.1
79118;BME280;68523;51.336;-0.846;2023-11-21T03:33:00;100705.0;;;9.58;101.0
79118;BME280;68523;51.336;-0.846;2023-11-21T03:36:00;100705.0;;;9.61;100.9
79118;BME280;68523;51.336;-0.846;2023-11-21T03:39:00;100705.0;;;9.61;100.8
79118;BME280;68523;51.336;-0.846;2023-11-21T03:42:00;100715.0;;;9.61;100.8
79118;BME280;68523;51.336;-0.846;2023-11-21T03:45:00;100715.0;;;9.62;100.7
79118;BME280;68523;51.336;-0.846;2023-11-21T03:48:00;100725.0;;;9.63;100.5
79118;BME280;68523;51.336;-0.846;2023-11-21T03:51:00;100725.0;;;9.62;100.2
79118;BME280;68523;51.336;-0.846;2023-11-21T03:54:00;100725.0;;;9.66;99.8
79118;BME280;68523;51.336;-0.846;2023-11-21T03:57:00;100735.0;;;9.73;99.0
79118;BME280;68523;51.336;-0.846;2023-11-21T04:00:00;100745.0;;;9.70;99.0
79118;BME280;68523;51.336;-0.846;2023-11-21T04:03:00;100745.0;;;9.68;98.7
79118;BME280;68523;51.336;-0.846;2023-11-21T04:06:00;100755.0;;;9.71;98.3
79118;BME280;68523;51.336;-0.846;2023-11-21T04:09:00;100765.0;;;9.74;97.4
79118;BME280;68523;51.336;-0.846;2023-11-21T04:12:00;100775.0;;;9.78;96.0
79118;BME280;68523;51.336;-0.846;2023-11-21T04:15:00;100775.0;;;9.74;96.0
79118;BME280;68523;51.336;-0.846;2023-11-21T04:18:00;100775.0;;;9.73;95.5
79118;BME280;68523;51.336;-0.846;2023-11-21T04:21:00;100785.0;;;9.70;95.8
79118;BME280;68523;51.336;-0.846;2023-11-21T04:24:00;100795.0;;;9.76;95.0
79118;BME280;68523;51.336;-0.846;2023-11-21T04:27:00;100795.0;;;9.70;95.0
79118;BME280;68523;51.336;-0.846;2023-11-21T04:30:00;100805.0;;;9.70;94.8
79118;BME280;68523;51.336;-0.846;2023-11-21T04:33:00;100805.0;;;9.69;95.3
79118;BME280;68523;51.336;-0.846;2023-11-21T04:36:00;100815.0;;;9.69;95.6
79118;BME280;68523;51.336;-0.846;2023-11-21T04:39:00;100815.0;;;9.65;95.6
79118;BME280;68523;51.336;-0.846;2023-11-21T04:42:00;100815.0;;;9.68;94.6
79118;BME280;68523;51.336;-0.846;2023-11-21T04:45:00;100815.0;;;9.64;94.9
79118;BME280;68523;51.336;-0.846;2023-11-21T04:48:00;100815.0;;;9.59;95.2
79118;BME280;68523;51.336;-0.846;2023-11-21T04:51:00;100815.0;;;9.60;95.1
79118;BME280;68523;51.336;-0.846;2023-11-21T04:54:00;100815.0;;;9.61;94.7
79118;BME280;68523;51.336;-0.846;2023-11-21T04:57:00;100825.0;;;9.58;94.5
79118;BME280;68523;51.336;-0.846;2023-11-21T05:00:00;100825.0;;;9.58;94.9
79118;BME280;68523;51.336;-0.846;2023-11-21T05:03:00;100825.0;;;9.55;94.9
79118;BME280;68523;51.336;-0.846;2023-11-21T05:06:00;100825.0;;;9.50;95.0
79118;BME280;68523;51.336;-0.846;2023-11-21T05:09:00;100825.0;;;9.49;94.6
79118;BME280;68523;51.336;-0.846;2023-11-21T05:12:00;100825.0;;;9.47;94.6
79118;BME280;68523;51.336;-0.846;2023-11-21T05:15:00;100825.0;;;9.48;94.4
79118;BME280;68523;51.336;-0.846;2023-11-21T05:18:00;100835.0;;;9.43;94.8
79118;BME280;68523;51.336;-0.846;2023-11-21T05:21:01;100845.0;;;9.42;95.2
79118;BME280;68523;51.336;-0.846;2023-11-21T05:24:00;100855.0;;;9.39;95.2
79118;BME280;68523;51.336;-0.846;2023-11-21T05:27:00;100855.0;;;9.42;95.1
79118;BME280;68523;51.336;-0.846;2023-11-21T05:30:01;100855.0;;;9.43;95.0
79118;BME280;68523;51.336;-0.846;2023-11-21T05:33:00;100865.0;;;9.42;94.6
79118;BME280;68523;51.336;-0.846;2023-11-21T05:36:00;100865.0;;;9.40;95.0
79118;BME280;68523;51.336;-0.846;2023-11-21T05:39:00;100875.0;;;9.40;95.1
79118;BME280;68523;51.336;-0.846;2023-11-21T05:42:00;100885.0;;;9.39;94.8
79118;BME280;68523;51.336;-0.846;2023-11-21T05:45:01;100905.0;;;9.30;94.6
79118;BME280;68523;51.336;-0.846;2023-11-21T05:48:00;100905.0;;;9.26;94.8
79118;BME280;68523;51.336;-0.846;2023-11-21T05:51:00;100915.0;;;9.26;94.4
79118;BME280;68523;51.336;-0.846;2023-11-21T05:54:00;100925.0;;;9.33;92.5
79118;BME280;68523;51.336;-0.846;2023-11-21T05:57:00;100925.0;;;9.29;92.8
79118;BME280;68523;51.336;-0.846;2023-11-21T06:00:00;100925.0;;;9.28;92.7
79118;BME280;68523;51.336;-0.846;2023-11-21T06:03:00;100935.0;;;9.29;92.4
79118;BME280;68523;51.336;-0.846;2023-11-21T06:06:00;100935.0;;;9.26;92.7
79118;BME280;68523;51.336;-0.846;2023-11-21T06:09:00;100945.0;;;9.23;92.1
79118;BME280;68523;51.336;-0.846;2023-11-21T06:12:00;100955.0;;;9.25;92.1
79118;BME280;68523;51.336;-0.846;2023-11-21T06:15:01;100965.0;;;9.25;91.4
79118;BME280;68523;51.336;-0.846;2023-11-21T06:18:00;100965.0;;;9.22;91.5
79118;BME280;68523;51.336;-0.846;2023-11-21T06:21:00;100965.0;;;9.21;91.3
79118;BME280;68523;51.336;-0.846;2023-11-21T06:24:00;100965.0;;;9.19;91.5
79118;BME280;68523;51.336;-0.846;2023-11-21T06:27:03;100965.0;;;9.14;91.4
79118;BME280;68523;51.336;-0.846;2023-11-21T06:30:00;100965.0;;;9.13;91.5
79118;BME280;68523;51.336;-0.846;2023-11-21T06:33:00;100965.0;;;9.13;90.8
79118;BME280;68523;51.336;-0.846;2023-11-21T06:36:00;100975.0;;;9.09;91.0
79118;BME280;68523;51.336;-0.846;2023-11-21T06:39:00;100985.0;;;9.10;90.5
79118;BME280;68523;51.336;-0.846;2023-11-21T06:42:00;100985.0;;;9.09;90.6
79118;BME280;68523;51.336;-0.846;2023-11-21T06:45:00;100985.0;;;9.09;90.3
79118;BME280;68523;51.336;-0.846;2023-11-21T06:48:00;100995.0;;;9.09;90.2
79118;BME280;68523;51.336;-0.846;2023-11-21T06:51:00;100995.0;;;9.05;90.3
79118;BME280;68523;51.336;-0.846;2023-11-21T06:54:00;101005.0;;;9.06;90.7
79118;BME280;68523;51.336;-0.846;2023-11-21T06:57:00;101005.0;;;9.02;90.7
79118;BME280;68523;51.336;-0.846;2023-11-21T07:00:01;101015.0;;;9.00;90.9
79118;BME280;68523;51.336;-0.846;2023-11-21T07:03:00;101025.0;;;9.03;90.7
79118;BME280;68523;51.336;-0.846;2023-11-21T07:06:00;101025.0;;;8.99;91.2
79118;BME280;68523;51.336;-0.846;2023-11-21T07:09:00;101035.0;;;8.96;91.4
79118;BME280;68523;51.336;-0.846;2023-11-21T07:12:00;101035.0;;;8.98;91.2
79118;BME280;68523;51.336;-0.846;2023-11-21T07:15:00;101035.0;;;9.01;90.9
79118;BME280;68523;51.336;-0.846;2023-11-21T07:18:00;101045.0;;;8.98;90.9
79118;BME280;68523;51.336;-0.846;2023-11-21T07:21:00;101055.0;;;9.00;90.8
79118;BME280;68523;51.336;-0.846;2023-11-21T07:24:01;101065.0;;;8.98;90.8
79118;BME280;68523;51.336;-0.846;2023-11-21T07:27:00;101075.0;;;8.96;90.6
79118;BME280;68523;51.336;-0.846;2023-11-21T07:30:00;101075.0;;;8.98;90.5
79118;BME280;68523;51.336;-0.846;2023-11-21T07:33:00;101075.0;;;8.96;90.6
79118;BME280;68523;51.336;-0.846;2023-11-21T07:36:00;101075.0;;;9.02;89.9
79118;BME280;68523;51.336;-0.846;2023-11-21T07:39:00;101075.0;;;9.05;89.8
79118;BME280;68523;51.336;-0.846;2023-11-21T07:42:00;101095.0;;;9.05;89.6
79118;BME280;68523;51.336;-0.846;2023-11-21T07:45:00;101095.0;;;8.99;90.4
79118;BME280;68523;51.336;-0.846;2023-11-21T07:48:00;101105.0;;;8.99;90.0
79118;BME280;68523;51.336;-0.846;2023-11-21T07:51:01;101105.0;;;9.06;90.1
79118;BME280;68523;51.336;-0.846;2023-11-21T07:54:00;101105.0;;;9.05;90.3
79118;BME280;68523;51.336;-0.846;2023-11-21T07:57:00;101105.0;;;9.04;90.2
79118;BME280;68523;51.336;-0.846;2023-11-21T08:00:00;101105.0;;;9.08;89.8
79118;BME280;68523;51.336;-0.846;2023-11-21T08:03:00;101105.0;;;9.09;90.3
79118;BME280;68523;51.336;-0.846;2023-11-21T08:06:00;101115.0;;;9.06;90.6
79118;BME280;68523;51.336;-0.846;2023-11-21T08:09:00;101125.0;;;9.07;90.0
79118;BME280;68523;51.336;-0.846;2023-11-21T08:12:00;101135.0;;;9.08;90.0
79118;BME280;68523;51.336;-0.846;2023-11-21T08:15:00;101135.0;;;9.10;90.1
79118;BME280;68523;51.336;-0.846;2023-11-21T08:18:00;101135.0;;;9.11;90.1
79118;BME280;68523;51.336;-0.846;2023-11-21T08:21:00;101135.0;;;9.11;90.2
79118;BME280;68523;51.336;-0.846;2023-11-21T08:24:00;101145.0;;;9.12;90.3
79118;BME280;68523;51.336;-0.846;2023-11-21T08:27:01;101155.0;;;9.06;90.5
79118;BME280;68523;51.336;-0.846;2023-11-21T08:30:00;101145.0;;;9.09;90.4
79118;BME280;68523;51.336;-0.846;2023-11-21T08:33:00;101155.0;;;9.14;90.1
79118;BME280;68523;51.336;-0.846;2023-11-21T08:36:00;101155.0;;;9.24;89.8
79118;BME280;68523;51.336;-0.846;2023-11-21T08:39:00;101165.0;;;9.31;89.6
79118;BME280;68523;51.336;-0.846;2023-11-21T08:42:00;101165.0;;;9.35;89.6
79118;BME280;68523;51.336;-0.846;2023-11-21T08:45:01;101165.0;;;9.37;89.1
79118;BME280;68523;51.336;-0.846;2023-11-21T08:48:00;101175.0;;;9.33;89.3
79118;BME280;68523;51.336;-0.846;2023-11-21T08:51:00;101175.0;;;9.31;89.4
79118;BME280;68523;51.336;-0.846;2023-11-21T08:54:00;101175.0;;;9.29;89.5
79118;BME280;68523;51.336;-0.846;2023-11-21T08:57:01;101185.0;;;9.33;90.1
79118;BME280;68523;51.336;-0.846;2023-11-21T09:00:00;101185.0;;;9.33;90.2
79118;BME280;68523;51.336;-0.846;2023-11-21T09:03:01;101195.0;;;9.24;90.0
79118;BME280;68523;51.336;-0.846;2023-11-21T09:06:00;101195.0;;;9.22;90.1
79118;BME280;68523;51.336;-0.846;2023-11-21T09:09:00;101205.0;;;9.25;90.1
79118;BME280;68523;51.336;-0.846;2023-11-21T09:12:00;101205.0;;;9.22;90.5
79118;BME280;68523;51.336;-0.846;2023-11-21T09:15:00;101215.0;;;9.17;90.9
79118;BME280;68523;51.336;-0.846;2023-11-21T09:18:00;101215.0;;;9.12;91.2
79118;BME280;68523;51.336;-0.846;2023-11-21T09:21:00;101225.0;;;9.14;91.2
79118;BME280;68523;51.336;-0.846;2023-11-21T09:24:00;101225.0;;;9.14;91.4
79118;BME280;68523;51.336;-0.846;2023-11-21T09:27:00;101225.0;;;9.18;91.5
79118;BME280;68523;51.336;-0.846;2023-11-21T09:30:00;101235.0;;;9.20;92.0
79118;BME280;68523;51.336;-0.846;2023-11-21T09:33:00;101235.0;;;9.19;91.4
79118;BME280;68523;51.336;-0.846;2023-11-21T09:36:00;101235.0;;;9.27;91.7
79118;BME280;68523;51.336;-0.846;2023-11-21T09:39:00;101235.0;;;9.21;91.8
79118;BME280;68523;51.336;-0.846;2023-11-21T09:42:06;101235.0;;;9.22;91.9
79118;BME280;68523;51.336;-0.846;2023-11-21T09:45:05;101235.0;;;9.18;91.9
79118;BME280;68523;51.336;-0.846;2023-11-21T09:48:01;101245.0;;;9.19;92.2
79118;BME280;68523;51.336;-0.846;2023-11-21T09:51:01;101245.0;;;9.23;92.4
79118;BME280;68523;51.336;-0.846;2023-11-21T09:54:02;101255.0;;;9.25;92.8
79118;BME280;68523;51.336;-0.846;2023-11-21T09:57:02;101265.0;;;9.26;92.6
79118;BME280;68523;51.336;-0.846;2023-11-21T10:00:01;101275.0;;;9.28;92.5
79118;BME280;68523;51.336;-0.846;2023-11-21T10:03:00;101275.0;;;9.27;92.8
79118;BME280;68523;51.336;-0.846;2023-11-21T10:06:01;101275.0;;;9.25;93.2
79118;BME280;68523;51.336;-0.846;2023-11-21T10:09:01;101275.0;;;9.27;93.2
79118;BME280;68523;51.336;-0.846;2023-11-21T10:12:01;101275.0;;;9.36;93.2
79118;BME280;68523;51.336;-0.846;2023-11-21T10:15:03;101285.0;;;9.30;93.3
79118;BME280;68523;51.336;-0.846;2023-11-21T10:18:02;101285.0;;;9.30;93.1
79118;BME280;68523;51.336;-0.846;2023-11-21T10:21:00;101285.0;;;9.19;93.6
79118;BME280;68523;51.336;-0.846;2023-11-21T10:24:00;101285.0;;;9.34;93.8
79118;BME280;68523;51.336;-0.846;2023-11-21T10:27:00;101285.0;;;9.25;93.8
79118;BME280;68523;51.336;-0.846;2023-11-21T10:30:00;101295.0;;;9.27;93.9
79118;BME280;68523;51.336;-0.846;2023-11-21T10:33:00;101295.0;;;9.39;93.9
79118;BME280;68523;51.336;-0.846;2023-11-21T10:36:01;101285.0;;;9.47;93.7
79118;BME280;68523;51.336;-0.846;2023-11-21T10:39:00;101285.0;;;9.39;93.9
79118;BME280;68523;51.336;-0.846;2023-11-21T10:42:00;101285.0;;;9.49;93.8
79118;BME280;68523;51.336;-0.846;2023-11-21T10:45:00;101285.0;;;9.55;93.9
79118;BME280;68523;51.336;-0.846;2023-11-21T10:48:00;101295.0;;;9.63;93.9
79118;BME280;68523;51.336;-0.846;2023-11-21T10:51:06;101295.0;;;9.69;93.8
79118;BME280;68523;51.336;-0.846;2023-11-21T10:54:00;101305.0;;;9.63;94.0
79118;BME280;68523;51.336;-0.846;2023-11-21T10:57:00;101295.0;;;9.82;94.2
79118;BME280;68523;51.336;-0.846;2023-11-21T11:00:01;101295.0;;;9.78;94.0
79118;BME280;68523;51.336;-0.846;2023-11-21T11:03:00;101295.0;;;9.82;93.2
79118;BME280;68523;51.336;-0.846;2023-11-21T11:06:01;101295.0;;;9.82;93.5
79118;BME280;68523;51.336;-0.846;2023-11-21T11:09:01;101295.0;;;9.95;93.2
79118;BME280;68523;51.336;-0.846;2023-11-21T11:12:01;101295.0;;;9.94;93.0
79118;BME280;68523;51.336;-0.846;2023-11-21T11:15:01;101295.0;;;10.13;93.0
79118;BME280;68523;51.336;-0.846;2023-11-21T11:18:01;101295.0;;;10.22;93.2
79118;BME280;68523;51.336;-0.846;2023-11-21T11:21:07;101295.0;;;10.05;93.7
79118;BME280;68523;51.336;-0.846;2023-11-21T11:24:13;101305.0;;;9.92;93.7
79118;BME280;68523;51.336;-0.846;2023-11-21T11:27:09;101305.0;;;9.89;94.5
79118;BME280;68523;51.336;-0.846;2023-11-21T11:30:09;101305.0;;;9.85;94.7
79118;BME280;68523;51.336;-0.846;2023-11-21T11:33:06;101305.0;;;9.84;95.0
79118;BME280;68523;51.336;-0.846;2023-11-21T11:36:05;101295.0;;;9.80;95.2
79118;BME280;68523;51.336;-0.846;2023-11-21T11:39:00;101295.0;;;9.77;95.3
79118;BME280;68523;51.336;-0.846;2023-11-21T11:42:02;101295.0;;;9.77;95.6
79118;BME280;68523;51.336;-0.846;2023-11-21T11:45:00;101305.0;;;9.89;95.2
79118;BME280;68523;51.336;-0.846;2023-11-21T11:48:01;101305.0;;;9.90;95.4
79118;BME280;68523;51.336;-0.846;2023-11-21T11:51:01;101315.0;;;9.91;95.5
79118;BME280;68523;51.336;-0.846;2023-11-21T11:54:01;101325.0;;;9.85;95.5
79118;BME280;68523;51.336;-0.846;2023-11-21T11:57:00;101325.0;;;9.94;95.7
79118;BME280;68523;51.336;-0.846;2023-11-21T12:00:12;101325.0;;;9.88;95.7
79118;BME280;68523;51.336;-0.846;2023-11-21T12:03:01;101335.0;;;9.98;95.8
79118;BME280;68523;51.336;-0.846;2023-11-21T12:06:00;101325.0;;;9.98;95.9
79118;BME280;68523;51.336;-0.846;2023-11-21T12:09:01;101335.0;;;9.91;96.5
79118;BME280;68523;51.336;-0.846;2023-11-21T12:12:02;101335.0;;;9.88;97.4
79118;BME280;68523;51.336;-0.846;2023-11-21T12:15:00;101325.0;;;9.83;98.0
79118;BME280;68523;51.336;-0.846;2023-11-21T12:18:01;101335.0;;;9.83;98.3
79118;BME280;68523;51.336;-0.846;2023-11-21T12:21:01;101335.0;;;9.88;98.9
79118;BME280;68523;51.336;-0.846;2023-11-21T12:24:00;101345.0;;;9.95;99.2
79118;BME280;68523;51.336;-0.846;2023-11-21T12:27:00;101355.0;;;9.84;99.2
79118;BME280;68523;51.336;-0.846;2023-11-21T12:30:00;101355.0;;;9.91;99.1
79118;BME280;68523;51.336;-0.846;2023-11-21T12:33:01;101355.0;;;9.94;99.1
79118;BME280;68523;51.336;-0.846;2023-11-21T12:36:00;101355.0;;;10.06;99.3
79118;BME280;68523;51.336;-0.846;2023-11-21T12:39:00;101365.0;;;10.12;99.5
79118;BME280;68523;51.336;-0.846;2023-11-21T12:42:01;101365.0;;;9.99;99.8
79118;BME280;68523;51.336;-0.846;2023-11-21T12:45:09;101375.0;;;9.99;100.1
79118;BME280;68523;51.336;-0.846;2023-11-21T12:48:02;101385.0;;;9.97;100.3
79118;BME280;68523;51.336;-0.846;2023-11-21T12:51:00;101395.0;;;9.99;100.3
79118;BME280;68523;51.336;-0.846;2023-11-21T12:54:00;101395.0;;;9.93;100.4
79118;BME280;68523;51.336;-0.846;2023-11-21T12:57:00;101395.0;;;9.93;100.6
79118;BME280;68523;51.336;-0.846;2023-11-21T13:00:00;101395.0;;;10.00;100.7
79118;BME280;68523;51.336;-0.846;2023-11-21T13:03:00;101405.0;;;9.93;100.6
79118;BME280;68523;51.336;-0.846;2023-11-21T13:06:00;101405.0;;;9.94;100.5
79118;BME280;68523;51.336;-0.846;2023-11-21T13:09:00;101415.0;;;9.89;100.5
79118;BME280;68523;51.336;-0.846;2023-11-21T13:12:01;101415.0;;;9.93;100.2
79118;BME280;68523;51.336;-0.846;2023-11-21T13:15:03;101415.0;;;9.94;100.2
79118;BME280;68523;51.336;-0.846;2023-11-21T13:18:00;101415.0;;;9.92;99.7
79118;BME280;68523;51.336;-0.846;2023-11-21T13:21:02;101415.0;;;9.90;99.3
79118;BME280;68523;51.336;-0.846;2023-11-21T13:24:00;101425.00000000001;;;9.94;99.6
79118;BME280;68523;51.336;-0.846;2023-11-21T13:30:00;101435.0;;;9.90;97.9
79118;BME280;68523;51.336;-0.846;2023-11-21T13:33:01;101445.0;;;9.84;98.3
79118;BME280;68523;51.336;-0.846;2023-11-21T13:36:00;101445.0;;;9.80;98.1
79118;BME280;68523;51.336;-0.846;2023-11-21T13:39:00;101445.0;;;9.81;98.2
79118;BME280;68523;51.336;-0.846;2023-11-21T13:42:00;101445.0;;;9.79;97.7
79118;BME280;68523;51.336;-0.846;2023-11-21T13:45:00;101445.0;;;9.72;98.2
79118;BME280;68523;51.336;-0.846;2023-11-21T13:48:00;101455.0;;;9.70;98.5
79118;BME280;68523;51.336;-0.846;2023-11-21T13:51:00;101455.0;;;9.70;98.5
79118;BME280;68523;51.336;-0.846;2023-11-21T13:54:00;101465.0;;;9.63;99.5
79118;BME280;68523;51.336;-0.846;2023-11-21T13:57:00;101465.0;;;9.58;99.3
79118;BME280;68523;51.336;-0.846;2023-11-21T14:00:00;101475.00000000001;;;9.53;98.7
79118;BME280;68523;51.336;-0.846;2023-11-21T14:03:00;101475.00000000001;;;9.58;98.5
79118;BME280;68523;51.336;-0.846;2023-11-21T14:06:00;101475.00000000001;;;9.53;97.7
79118;BME280;68523;51.336;-0.846;2023-11-21T14:09:00;101475.00000000001;;;9.51;97.5
79118;BME280;68523;51.336;-0.846;2023-11-21T14:12:00;101475.00000000001;;;9.53;97.6
79118;BME280;68523;51.336;-0.846;2023-11-21T14:15:00;101485.0;;;9.47;97.4
79118;BME280;68523;51.336;-0.846;2023-11-21T14:18:00;101485.0;;;9.47;97.5
79118;BME280;68523;51.336;-0.846;2023-11-21T14:21:00;101485.0;;;9.43;97.7
79118;BME280;68523;51.336;-0.846;2023-11-21T14:24:00;101495.0;;;9.35;97.7
79118;BME280;68523;51.336;-0.846;2023-11-21T14:27:00;101495.0;;;9.27;97.7
79118;BME280;68523;51.336;-0.846;2023-11-21T14:33:00;101515.0;;;9.22;98.0
79118;BME280;68523;51.336;-0.846;2023-11-21T14:36:00;101525.00000000001;;;9.09;97.7
79118;BME280;68523;51.336;-0.846;2023-11-21T14:39:00;101525.00000000001;;;9.10;96.7
79118;BME280;68523;51.336;-0.846;2023-11-21T14:42:00;101525.00000000001;;;9.15;96.4
79118;BME280;68523;51.336;-0.846;2023-11-21T14:45:00;101535.0;;;9.20;97.1
79118;BME280;68523;51.336;-0.846;2023-11-21T14:48:00;101545.0;;;9.22;95.3
79118;BME280;68523;51.336;-0.846;2023-11-21T14:51:00;101555.0;;;9.24;95.2
79118;BME280;68523;51.336;-0.846;2023-11-21T14:54:01;101555.0;;;9.22;95.8
79118;BME280;68523;51.336;-0.846;2023-11-21T14:57:00;101565.0;;;9.25;95.5
79118;BME280;68523;51.336;-0.846;2023-11-21T15:00:00;101565.0;;;9.17;95.6
79118;BME280;68523;51.336;-0.846;2023-11-21T15:03:00;101565.0;;;9.13;96.0
79118;BME280;68523;51.336;-0.846;2023-11-21T15:06:01;101565.0;;;9.11;95.5
79118;BME280;68523;51.336;-0.846;2023-11-21T15:09:00;101565.0;;;9.10;95.0
79118;BME280;68523;51.336;-0.846;2023-11-21T15:12:01;101555.0;;;9.08;95.0
79118;BME280;68523;51.336;-0.846;2023-11-21T15:15:00;101555.0;;;9.06;94.4
79118;BME280;68523;51.336;-0.846;2023-11-21T15:18:00;101565.0;;;8.98;94.6
79118;BME280;68523;51.336;-0.846;2023-11-21T15:21:00;101565.0;;;8.98;94.3
79118;BME280;68523;51.336;-0.846;2023-11-21T15:24:00;101565.0;;;8.94;94.1
79118;BME280;68523;51.336;-0.846;2023-11-21T15:27:00;101565.0;;;8.91;94.1
79118;BME280;68523;51.336;-0.846;2023-11-21T15:30:00;101565.0;;;8.91;93.9
79118;BME280;68523;51.336;-0.846;2023-11-21T15:33:00;101555.0;;;8.96;94.1
79118;BME280;68523;51.336;-0.846;2023-11-21T15:36:00;101565.0;;;8.98;93.6
79118;BME280;68523;51.336;-0.846;2023-11-21T15:39:00;101565.0;;;8.96;93.7
79118;BME280;68523;51.336;-0.846;2023-11-21T15:42:00;101575.00000000001;;;8.99;93.7
79118;BME280;68523;51.336;-0.846;2023-11-21T15:45:00;101585.0;;;8.98;93.8
79118;BME280;68523;51.336;-0.846;2023-11-21T15:48:00;101595.0;;;8.99;93.4
79118;BME280;68523;51.336;-0.846;2023-11-21T15:51:00;101585.0;;;8.98;94.1
79118;BME280;68523;51.336;-0.846;2023-11-21T15:54:00;101585.0;;;9.02;93.5
79118;BME280;68523;51.336;-0.846;2023-11-21T15:57:00;101575.00000000001;;;9.00;93.4
79118;BME280;68523;51.336;-0.846;2023-11-21T16:00:00;101585.0;;;8.99;94.1
79118;BME280;68523;51.336;-0.846;2023-11-21T16:03:00;101605.0;;;8.98;93.5